createdAt,value
2022-12-29T00:02:55.045Z,5.72
2022-12-29T00:05:57.782Z,6.53
2022-12-29T00:08:59.804Z,7.00
2022-12-29T00:12:03.840Z,7.47
2022-12-29T00:15:05.532Z,5.93
2022-12-29T00:18:07.782Z,6.22
2022-12-29T00:21:20.822Z,6.28
2022-12-29T00:24:22.868Z,6.35
2022-12-29T00:27:24.255Z,6.00
2022-12-29T00:30:26.613Z,6.68
2022-12-29T00:33:33.345Z,6.10
2022-12-29T00:36:39.803Z,6.25
2022-12-29T00:39:41.189Z,6.32
2022-12-29T00:42:42.523Z,6.97
2022-12-29T00:45:43.871Z,6.70
2022-12-29T00:48:45.379Z,7.22
2022-12-29T00:51:47.433Z,6.50
2022-12-29T00:54:49.058Z,6.22
2022-12-29T00:57:50.422Z,6.13
2022-12-29T01:00:51.816Z,6.38
2022-12-29T01:03:54.690Z,6.10
2022-12-29T01:06:58.839Z,5.47
2022-12-29T01:10:00.290Z,5.88
2022-12-29T01:13:01.867Z,5.53
2022-12-29T01:16:03.437Z,5.63
2022-12-29T01:19:05.062Z,5.80
2022-12-29T01:22:06.415Z,6.00
2022-12-29T01:25:08.882Z,6.50
2022-12-29T01:28:13.304Z,6.78
2022-12-29T01:31:16.632Z,6.90
2022-12-29T01:37:20.039Z,6.93
2022-12-29T01:40:21.566Z,7.18
2022-12-29T01:43:48.908Z,8.80
2022-12-29T01:46:52.329Z,7.70
2022-12-29T01:49:56.537Z,7.82
2022-12-29T01:53:04.995Z,7.60
2022-12-29T01:56:11.632Z,8.23
2022-12-29T01:59:18.864Z,8.00
2022-12-29T02:02:20.545Z,8.13
2022-12-29T02:05:45.103Z,8.95
2022-12-29T02:08:50.187Z,8.15
2022-12-29T02:11:52.623Z,8.68
2022-12-29T02:15:01.655Z,8.17
2022-12-29T02:18:14.746Z,9.45
2022-12-29T02:21:32.045Z,8.43
2022-12-29T02:24:42.561Z,8.20
2022-12-29T02:28:19.621Z,8.70
2022-12-29T02:31:25.824Z,7.30
2022-12-29T02:38:21.462Z,7.50
2022-12-29T02:41:33.608Z,7.90
2022-12-29T02:45:06.776Z,7.13
2022-12-29T02:48:19.565Z,6.63
2022-12-29T02:52:01.245Z,6.90
2022-12-29T02:55:02.609Z,7.55
2022-12-29T02:58:18.058Z,6.82
2022-12-29T03:01:35.273Z,6.40
2022-12-29T03:04:48.520Z,6.35
2022-12-29T03:08:00.429Z,6.30
2022-12-29T03:11:08.744Z,6.30
2022-12-29T03:14:23.692Z,6.45
2022-12-29T03:17:41.206Z,5.60
2022-12-29T03:20:50.888Z,6.55
2022-12-29T03:23:52.272Z,6.50
2022-12-29T03:26:58.586Z,6.00
2022-12-29T03:30:06.719Z,5.55
2022-12-29T03:33:13.170Z,6.18
2022-12-29T03:36:27.963Z,5.75
2022-12-29T03:39:29.840Z,5.50
2022-12-29T03:42:35.380Z,5.85
2022-12-29T03:45:36.863Z,6.28
2022-12-29T03:48:38.251Z,5.93
2022-12-29T03:51:39.709Z,5.50
2022-12-29T03:54:41.984Z,6.10
2022-12-29T03:57:43.529Z,5.43
2022-12-29T04:00:49.313Z,5.38
2022-12-29T04:03:50.968Z,5.35
2022-12-29T04:06:52.381Z,5.05
2022-12-29T04:09:54.165Z,5.10
2022-12-29T04:13:01.643Z,4.13
2022-12-29T04:16:03.101Z,4.75
2022-12-29T04:19:04.586Z,3.67
2022-12-29T04:22:07.832Z,3.35
2022-12-29T04:25:10.650Z,3.83
2022-12-29T04:28:12.772Z,3.28
2022-12-29T04:31:32.629Z,3.33
2022-12-29T04:34:34.204Z,2.80
2022-12-29T04:37:35.888Z,2.58
2022-12-29T04:40:43.174Z,2.60
2022-12-29T04:43:45.471Z,2.50
2022-12-29T04:46:46.903Z,2.70
2022-12-29T04:50:17.129Z,2.70
2022-12-29T04:53:33.446Z,2.97
2022-12-29T04:56:35.036Z,2.47
2022-12-29T04:59:36.479Z,3.03
2022-12-29T05:02:38.806Z,2.83
2022-12-29T05:05:41.636Z,2.45
2022-12-29T05:08:43.164Z,2.20
2022-12-29T05:11:44.982Z,3.60
2022-12-29T05:14:46.389Z,2.55
2022-12-29T05:17:47.760Z,2.45
2022-12-29T05:20:49.679Z,2.70
2022-12-29T05:23:52.468Z,2.58
2022-12-29T05:26:54.427Z,2.85
2022-12-29T05:30:28.083Z,3.20
2022-12-29T05:33:29.504Z,4.10
2022-12-29T05:36:37.560Z,3.53
2022-12-29T05:39:40.222Z,3.78
2022-12-29T05:42:43.285Z,3.75
2022-12-29T05:46:19.801Z,3.78
2022-12-29T05:49:43.138Z,3.65
2022-12-29T05:52:55.162Z,3.50
2022-12-29T05:55:57.739Z,3.88
2022-12-29T05:58:59.354Z,3.45
2022-12-29T06:02:01.150Z,3.25
2022-12-29T06:05:03.489Z,3.22
2022-12-29T06:08:05.611Z,2.95
2022-12-29T06:11:07.235Z,2.90
2022-12-29T06:14:08.934Z,3.10
2022-12-29T06:17:10.463Z,2.58
2022-12-29T06:20:12.711Z,3.03
2022-12-29T06:23:14.130Z,3.20
2022-12-29T06:26:15.611Z,2.80
2022-12-29T06:29:20.367Z,2.60
2022-12-29T06:32:22.104Z,2.85
2022-12-29T06:35:28.998Z,2.78
2022-12-29T06:38:30.472Z,2.63
2022-12-29T06:41:33.542Z,2.90
2022-12-29T06:44:57.174Z,2.60
2022-12-29T06:48:01.854Z,2.50
2022-12-29T06:51:03.659Z,2.40
2022-12-29T06:54:05.092Z,4.72
2022-12-29T06:57:06.480Z,2.40
2022-12-29T07:00:08.650Z,3.47
2022-12-29T07:03:10.065Z,2.67
2022-12-29T07:06:11.574Z,3.17
2022-12-29T07:09:12.966Z,4.75
2022-12-29T07:12:14.629Z,3.65
2022-12-29T07:15:16.051Z,4.45
2022-12-29T07:18:17.849Z,3.50
2022-12-29T07:21:19.577Z,6.95
2022-12-29T07:24:22.116Z,6.75
2022-12-29T07:27:23.518Z,6.13
2022-12-29T07:30:24.938Z,5.53
2022-12-29T07:33:26.566Z,4.60
2022-12-29T07:36:34.019Z,5.50
2022-12-29T07:39:35.869Z,12.90
2022-12-29T07:42:37.416Z,7.45
2022-12-29T07:48:44.571Z,18.40
2022-12-29T07:51:45.911Z,14.35
2022-12-29T07:54:47.304Z,13.32
2022-12-29T07:57:48.622Z,10.55
2022-12-29T08:00:58.132Z,8.40
2022-12-29T08:03:59.546Z,5.22
2022-12-29T08:07:00.940Z,2.63
2022-12-29T08:10:02.391Z,3.15
2022-12-29T08:13:03.751Z,2.13
2022-12-29T08:16:05.490Z,2.95
2022-12-29T08:19:06.926Z,2.10
2022-12-29T08:22:08.251Z,1.83
2022-12-29T08:25:09.787Z,2.75
2022-12-29T08:28:11.147Z,5.18
2022-12-29T08:31:12.586Z,2.15
2022-12-29T08:34:14.567Z,2.75
2022-12-29T08:37:15.905Z,4.45
2022-12-29T08:40:17.302Z,1.58
2022-12-29T08:43:19.070Z,2.58
2022-12-29T08:46:20.682Z,3.67
2022-12-29T08:49:22.085Z,2.63
2022-12-29T08:52:23.459Z,2.17
2022-12-29T08:55:25.497Z,3.60
2022-12-29T08:58:29.307Z,1.33
2022-12-29T09:01:31.198Z,2.47
2022-12-29T09:04:32.911Z,3.17
2022-12-29T09:07:34.412Z,4.80
2022-12-29T09:10:35.789Z,1.60
2022-12-29T09:13:37.423Z,2.22
2022-12-29T09:16:39.840Z,3.22
2022-12-29T09:19:41.793Z,3.27
2022-12-29T09:22:44.182Z,6.00
2022-12-29T09:25:45.568Z,2.80
2022-12-29T09:28:46.969Z,2.78
2022-12-29T09:31:48.504Z,2.80
2022-12-29T09:34:49.949Z,3.67
2022-12-29T09:37:51.385Z,3.00
2022-12-29T09:40:56.324Z,3.38
2022-12-29T09:44:07.645Z,3.33
2022-12-29T09:47:14.242Z,2.15
2022-12-29T09:50:33.962Z,2.53
2022-12-29T09:53:46.167Z,4.00
2022-12-29T09:56:48.660Z,3.22
2022-12-29T09:59:53.893Z,3.97
2022-12-29T10:03:24.612Z,2.65
2022-12-29T10:07:11.416Z,4.97
2022-12-29T10:10:37.499Z,5.28
2022-12-29T10:13:49.960Z,5.03
2022-12-29T10:17:12.861Z,3.55
2022-12-29T10:20:26.133Z,4.33
2022-12-29T10:23:36.749Z,4.50
2022-12-29T10:26:43.232Z,3.25
2022-12-29T10:29:51.217Z,3.65
2022-12-29T10:33:04.941Z,4.50
2022-12-29T10:36:39.262Z,5.20
2022-12-29T10:39:54.164Z,3.95
2022-12-29T10:42:58.066Z,5.30
2022-12-29T10:46:13.650Z,3.05
2022-12-29T10:49:21.835Z,5.00
2022-12-29T10:52:26.078Z,5.95
2022-12-29T10:55:33.298Z,5.18
2022-12-29T10:58:34.651Z,3.95
2022-12-29T11:01:47.246Z,4.68
2022-12-29T11:05:20.562Z,4.37
2022-12-29T11:08:27.826Z,4.30
2022-12-29T11:11:35.864Z,7.07
2022-12-29T11:14:37.238Z,3.67
2022-12-29T11:17:49.700Z,2.22
2022-12-29T11:20:56.302Z,7.72
2022-12-29T11:23:59.012Z,4.63
2022-12-29T11:27:16.416Z,4.60
2022-12-29T11:30:34.409Z,4.57
2022-12-29T11:33:38.322Z,2.83
2022-12-29T11:36:39.910Z,2.03
2022-12-29T11:40:01.551Z,4.32
2022-12-29T11:43:04.077Z,3.53
2022-12-29T11:46:07.112Z,2.20
2022-12-29T11:49:24.210Z,2.45
2022-12-29T11:52:29.486Z,2.72
2022-12-29T11:55:32.262Z,3.30
2022-12-29T11:58:36.549Z,3.35
2022-12-29T12:01:39.781Z,7.47
2022-12-29T12:07:45.669Z,2.47
2022-12-29T12:10:58.390Z,3.72
2022-12-29T12:14:38.716Z,4.47
2022-12-29T12:18:42.772Z,2.90
2022-12-29T12:21:48.857Z,4.55
2022-12-29T12:24:56.382Z,4.35
2022-12-29T12:28:05.316Z,6.20
2022-12-29T12:31:18.103Z,6.03
2022-12-29T12:34:46.339Z,6.13
2022-12-29T12:38:07.653Z,4.53
2022-12-29T12:41:34.920Z,6.05
2022-12-29T12:44:52.635Z,3.03
2022-12-29T12:48:30.965Z,4.50
2022-12-29T12:51:50.675Z,4.32
2022-12-29T12:55:13.668Z,3.80
2022-12-29T12:58:36.906Z,3.13
2022-12-29T13:02:16.628Z,2.90
2022-12-29T13:05:47.854Z,5.68
2022-12-29T13:09:07.260Z,7.13
2022-12-29T13:12:30.090Z,5.68
2022-12-29T13:15:40.676Z,5.00
2022-12-29T13:19:06.915Z,5.60
2022-12-29T13:22:18.997Z,6.28
2022-12-29T13:25:41.891Z,6.90
2022-12-29T13:29:18.093Z,7.17
2022-12-29T13:32:37.493Z,5.75
2022-12-29T13:36:14.658Z,4.68
2022-12-29T13:39:38.053Z,12.13
2022-12-29T13:42:41.570Z,4.53
2022-12-29T13:45:45.937Z,2.88
2022-12-29T13:48:54.318Z,2.35
2022-12-29T13:51:58.509Z,5.68
2022-12-29T13:55:37.779Z,2.33
2022-12-29T13:59:00.669Z,4.20
2022-12-29T14:02:17.952Z,5.10
2022-12-29T14:05:19.432Z,5.13
2022-12-29T14:08:20.830Z,8.88
2022-12-29T14:11:24.900Z,8.77
2022-12-29T14:14:30.728Z,7.63
2022-12-29T14:17:32.199Z,5.68
2022-12-29T14:20:34.607Z,7.57
2022-12-29T14:23:42.528Z,5.87
2022-12-29T14:26:43.944Z,5.80
2022-12-29T14:29:48.490Z,3.83
2022-12-29T14:33:13.477Z,6.72
2022-12-29T14:36:34.776Z,3.95
2022-12-29T14:39:43.380Z,7.70
2022-12-29T14:42:46.443Z,6.68
2022-12-29T14:45:56.240Z,4.95
2022-12-29T14:48:59.951Z,7.00
2022-12-29T14:52:16.271Z,10.38
2022-12-29T14:55:17.575Z,4.40
2022-12-29T14:58:29.192Z,6.63
2022-12-29T15:01:33.639Z,6.63
2022-12-29T15:04:36.496Z,6.80
2022-12-29T15:07:38.146Z,6.25
2022-12-29T15:11:09.438Z,12.90
2022-12-29T15:14:33.720Z,9.23
2022-12-29T15:17:35.600Z,15.27
2022-12-29T15:20:37.207Z,6.65
2022-12-29T15:23:38.678Z,8.38
2022-12-29T15:26:42.901Z,8.13
2022-12-29T15:29:47.061Z,8.80
2022-12-29T15:32:49.442Z,7.93
2022-12-29T15:35:52.709Z,6.68
2022-12-29T15:42:01.701Z,8.15
2022-12-29T15:45:11.620Z,8.82
2022-12-29T15:48:22.499Z,9.57
2022-12-29T15:51:34.130Z,6.97
2022-12-29T15:54:36.959Z,8.07
2022-12-29T15:57:43.734Z,5.18
2022-12-29T16:00:49.165Z,8.98
2022-12-29T16:03:52.112Z,9.07
2022-12-29T16:07:01.658Z,10.00
2022-12-29T16:10:03.806Z,11.75
2022-12-29T16:13:17.810Z,7.43
2022-12-29T16:16:23.570Z,7.97
2022-12-29T16:19:30.388Z,8.45
2022-12-29T16:22:40.523Z,6.82
2022-12-29T16:25:42.052Z,8.52
2022-12-29T16:28:43.574Z,8.35
2022-12-29T16:31:54.163Z,7.55
2022-12-29T16:35:20.148Z,10.60
2022-12-29T16:38:23.233Z,11.48
2022-12-29T16:41:32.235Z,6.28
2022-12-29T16:44:33.572Z,7.18
2022-12-29T16:47:35.042Z,10.05
2022-12-29T16:50:39.186Z,7.88
2022-12-29T16:53:43.069Z,11.05
2022-12-29T16:56:45.726Z,8.88
2022-12-29T16:59:47.136Z,9.97
2022-12-29T17:02:51.303Z,13.45
2022-12-29T17:05:57.375Z,10.27
2022-12-29T17:08:59.153Z,7.13
2022-12-29T17:12:10.431Z,11.95
2022-12-29T17:15:31.162Z,11.48
2022-12-29T17:18:32.517Z,8.68
2022-12-29T17:21:33.970Z,8.77
2022-12-29T17:24:35.351Z,9.38
2022-12-29T17:27:54.477Z,11.85
2022-12-29T17:31:01.555Z,8.13
2022-12-29T17:34:02.931Z,8.15
2022-12-29T17:37:24.850Z,9.27
2022-12-29T17:40:32.642Z,9.35
2022-12-29T17:43:37.065Z,6.95
2022-12-29T17:46:38.656Z,7.65
2022-12-29T17:49:40.018Z,6.65
2022-12-29T17:52:43.822Z,7.00
2022-12-29T17:55:45.300Z,10.88
2022-12-29T17:58:48.860Z,9.90
2022-12-29T18:01:50.297Z,5.53
2022-12-29T18:04:53.501Z,10.68
2022-12-29T18:07:57.908Z,10.80
2022-12-29T18:10:59.326Z,6.70
2022-12-29T18:14:00.689Z,7.63
2022-12-29T18:17:02.039Z,7.78
2022-12-29T18:20:03.587Z,10.90
2022-12-29T18:23:05.257Z,10.93
2022-12-29T18:26:19.713Z,6.78
2022-12-29T18:29:25.189Z,12.32
2022-12-29T18:32:26.526Z,8.15
2022-12-29T18:35:40.633Z,11.18
2022-12-29T18:38:42.390Z,9.05
2022-12-29T18:41:43.797Z,11.93
2022-12-29T18:44:45.182Z,13.85
2022-12-29T18:47:46.744Z,10.63
2022-12-29T18:50:48.943Z,11.80
2022-12-29T18:53:51.063Z,9.57
2022-12-29T18:56:52.422Z,11.00
2022-12-29T18:59:53.826Z,8.00
2022-12-29T19:02:55.239Z,9.85
2022-12-29T19:05:56.862Z,9.93
2022-12-29T19:08:58.235Z,13.60
2022-12-29T19:12:00.082Z,15.38
2022-12-29T19:15:01.462Z,14.73
2022-12-29T19:21:26.347Z,11.63
2022-12-29T19:24:27.895Z,15.07
2022-12-29T19:27:29.257Z,12.10
2022-12-29T19:30:31.078Z,13.75
2022-12-29T19:33:32.441Z,12.77
2022-12-29T19:36:33.812Z,9.75
2022-12-29T19:39:35.227Z,13.57
2022-12-29T19:42:36.602Z,10.07
2022-12-29T19:45:39.500Z,11.07
2022-12-29T19:48:40.940Z,10.80
2022-12-29T19:51:42.320Z,7.95
2022-12-29T19:54:43.677Z,5.32
2022-12-29T19:57:45.231Z,4.28
2022-12-29T20:00:46.610Z,4.20
2022-12-29T20:03:48.594Z,6.47
2022-12-29T20:06:49.952Z,4.07
2022-12-29T20:09:51.369Z,4.22
2022-12-29T20:12:53.024Z,2.95
2022-12-29T20:16:03.383Z,1.70
2022-12-29T20:19:04.791Z,3.83
2022-12-29T20:22:07.934Z,3.40
2022-12-29T20:25:53.554Z,5.45
2022-12-29T20:28:31.233Z,5.93
2022-12-29T20:31:36.124Z,5.38
2022-12-29T20:34:37.782Z,2.97
2022-12-29T20:37:39.159Z,4.05
2022-12-29T20:40:46.131Z,4.13
2022-12-29T20:43:48.481Z,4.05
2022-12-29T20:46:49.828Z,4.63
2022-12-29T20:49:51.194Z,8.80
2022-12-29T20:52:52.554Z,6.70
2022-12-29T20:55:54.759Z,3.10
2022-12-29T21:02:22.122Z,8.35
2022-12-29T21:05:25.224Z,3.70
2022-12-29T21:08:28.221Z,3.45
2022-12-29T21:11:31.053Z,3.33
2022-12-29T21:14:32.388Z,2.33
2022-12-29T21:17:33.765Z,3.17
2022-12-29T21:20:35.159Z,2.13
2022-12-29T21:23:40.028Z,2.50
2022-12-29T21:26:41.408Z,2.50
2022-12-29T21:29:42.770Z,3.55
2022-12-29T21:32:44.108Z,4.13
2022-12-29T21:35:46.616Z,3.75
2022-12-29T21:38:48.027Z,3.63
2022-12-29T21:41:49.385Z,3.08
2022-12-29T21:44:50.785Z,4.60
2022-12-29T21:48:00.324Z,4.40
2022-12-29T21:51:13.669Z,5.30
2022-12-29T21:54:15.125Z,4.18
2022-12-29T21:57:21.299Z,6.22
2022-12-29T22:00:22.971Z,7.32
2022-12-29T22:03:24.423Z,3.78
2022-12-29T22:06:25.882Z,7.75
2022-12-29T22:09:27.319Z,4.13
2022-12-29T22:12:30.460Z,4.70
2022-12-29T22:15:35.110Z,5.63
2022-12-29T22:18:36.990Z,5.22
2022-12-29T22:21:38.354Z,5.05
2022-12-29T22:24:39.717Z,3.92
2022-12-29T22:27:41.275Z,6.63
2022-12-29T22:30:43.002Z,3.17
2022-12-29T22:33:45.469Z,7.90
2022-12-29T22:36:46.854Z,8.33
2022-12-29T22:39:48.243Z,9.93
2022-12-29T22:42:49.618Z,8.10
2022-12-29T22:45:50.967Z,5.32
2022-12-29T22:48:52.390Z,8.63
2022-12-29T22:51:53.747Z,6.90
2022-12-29T22:54:55.182Z,11.00
2022-12-29T22:57:56.532Z,6.93
2022-12-29T23:00:58.337Z,8.65
2022-12-29T23:04:27.112Z,4.38
2022-12-29T23:07:21.085Z,7.40
2022-12-29T23:10:22.489Z,5.43
2022-12-29T23:13:23.936Z,4.35
2022-12-29T23:16:25.978Z,6.43
2022-12-29T23:19:27.456Z,12.23
2022-12-29T23:22:31.682Z,6.32
2022-12-29T23:25:38.617Z,9.38
2022-12-29T23:28:40.032Z,9.00
2022-12-29T23:31:41.685Z,11.20
2022-12-29T23:34:43.184Z,8.70
2022-12-29T23:37:44.566Z,7.47
2022-12-29T23:40:45.964Z,9.82
2022-12-29T23:43:47.747Z,9.48
2022-12-29T23:46:49.201Z,8.82
2022-12-29T23:49:50.599Z,9.02
2022-12-29T23:52:51.934Z,9.70
2022-12-29T23:55:55.822Z,9.40
2022-12-29T23:58:57.241Z,8.40
